Time;durP1;ratioP1;P1;durP2;ratioP2;P2;SDS_P1;SDS_P2;PMS_P1;PMS_P2;Temp;Humidity;BMP_temperature;BMP_pressure;BME280_temperature;BME280_humidity;BME280_pressure;Samples;Min_cycle;Max_cycle;Signal;HPM_P1;HPM_P2
2023/09/12 00:01:21;;;;;;;15.50;14.00;;;23.10;27.00;;;;;;4920271;29;20282;-78
2023/09/12 00:03:46;;;;;;;15.00;14.00;;;23.10;26.90;;;;;;4928621;29;20298;-79
2023/09/12 00:06:12;;;;;;;14.97;14.07;;;23.10;27.10;;;;;;4923828;29;20192;-79
2023/09/12 00:08:37;;;;;;;15.17;14.07;;;23.10;27.00;;;;;;4924398;29;20248;-78
2023/09/12 00:11:06;;;;;;;15.97;14.67;;;23.00;27.00;;;;;;4925036;29;20196;-79
2023/09/12 00:13:32;;;;;;;14.90;13.90;;;23.00;27.10;;;;;;4929377;29;20203;-78
2023/09/12 00:15:58;;;;;;;14.33;13.30;;;23.00;27.30;;;;;;4931566;29;20441;-78
2023/09/12 00:18:24;;;;;;;15.67;14.47;;;23.00;27.30;;;;;;4941405;29;20597;-78
2023/09/12 00:20:50;;;;;;;14.87;13.70;;;23.00;27.40;;;;;;4928720;29;20562;-78
2023/09/12 00:23:16;;;;;;;15.70;14.13;;;22.90;27.30;;;;;;4930146;29;20193;-78
2023/09/12 00:25:42;;;;;;;15.10;14.10;;;23.00;27.50;;;;;;4922589;29;20906;-79
2023/09/12 00:28:07;;;;;;;16.00;14.50;;;23.00;27.50;;;;;;4923582;29;20659;-79
2023/09/12 00:30:33;;;;;;;16.13;14.90;;;22.90;27.50;;;;;;4917946;29;20661;-77
2023/09/12 00:32:58;;;;;;;16.00;14.50;;;22.90;27.60;;;;;;4925888;29;20185;-78
2023/09/12 00:35:24;;;;;;;15.63;14.33;;;22.90;27.80;;;;;;4937291;29;20207;-79
2023/09/12 00:37:49;;;;;;;15.67;14.43;;;22.90;27.70;;;;;;4922882;29;20196;-79
2023/09/12 00:40:15;;;;;;;15.10;13.83;;;22.90;27.60;;;;;;4931958;29;20709;-79
2023/09/12 00:42:40;;;;;;;15.50;14.10;;;22.90;27.80;;;;;;4923063;29;20569;-78
2023/09/12 00:45:07;;;;;;;15.53;14.17;;;22.80;27.60;;;;;;4922621;29;20283;-79
2023/09/12 00:47:33;;;;;;;15.77;14.43;;;22.90;27.60;;;;;;4922702;29;20583;-78
2023/09/12 00:49:59;;;;;;;15.47;14.37;;;22.90;27.70;;;;;;4924499;29;20443;-78
2023/09/12 00:52:27;;;;;;;15.73;13.87;;;22.90;27.80;;;;;;4921756;29;20516;-79
2023/09/12 00:54:54;;;;;;;15.23;14.20;;;22.80;27.70;;;;;;4922219;29;20421;-78
2023/09/12 00:57:20;;;;;;;16.70;15.30;;;22.80;27.80;;;;;;4921857;29;20432;-79
2023/09/12 00:59:47;;;;;;;16.90;15.37;;;22.80;27.80;;;;;;4923686;29;20548;-78
2023/09/12 01:02:13;;;;;;;16.00;14.77;;;22.80;27.80;;;;;;4919807;29;20444;-78
2023/09/12 01:04:39;;;;;;;15.43;14.33;;;22.80;27.80;;;;;;4922039;29;20513;-78
2023/09/12 01:07:05;;;;;;;14.80;13.70;;;22.80;27.80;;;;;;4921011;29;20185;-78
2023/09/12 01:09:32;;;;;;;15.90;14.80;;;22.70;27.90;;;;;;4922047;29;20466;-78
2023/09/12 01:11:57;;;;;;;17.67;16.20;;;22.70;27.80;;;;;;4921219;29;20222;-77
2023/09/12 01:14:23;;;;;;;16.07;14.77;;;22.70;27.80;;;;;;4926841;29;20488;-77
2023/09/12 01:16:49;;;;;;;16.20;14.70;;;22.70;27.90;;;;;;4920791;29;20185;-78
2023/09/12 01:19:16;;;;;;;15.00;14.00;;;22.70;28.10;;;;;;4928834;29;20212;-78
2023/09/12 01:22:31;;;;;;;16.13;14.80;;;22.60;28.20;;;;;;4935607;29;20572;-78
2023/09/12 01:25:21;;;;;;;17.33;15.73;;;22.60;28.30;;;;;;4911204;29;20477;-79
2023/09/12 01:27:50;;;;;;;16.50;15.30;;;22.60;28.40;;;;;;4922754;29;20435;-78
2023/09/12 01:30:20;;;;;;;16.20;15.10;;;22.60;28.50;;;;;;4926692;29;20444;-78
2023/09/12 01:32:46;;;;;;;15.63;14.53;;;22.50;28.70;;;;;;4934666;29;20443;-78
2023/09/12 01:35:12;;;;;;;16.40;15.17;;;22.40;28.80;;;;;;4929025;29;20432;-78
2023/09/12 01:37:37;;;;;;;16.27;14.87;;;22.50;28.90;;;;;;4940037;29;20444;-79
2023/09/12 01:40:03;;;;;;;16.07;14.87;;;22.50;28.70;;;;;;4921715;29;20602;-79
2023/09/12 01:42:35;;;;;;;15.50;14.40;;;22.50;28.40;;;;;;4936050;29;20239;-79
2023/09/12 01:45:02;;;;;;;16.30;15.20;;;22.50;28.50;;;;;;4922461;29;20464;-79
2023/09/12 01:47:29;;;;;;;15.30;14.37;;;22.50;28.50;;;;;;4926661;29;20425;-79
2023/09/12 01:49:57;;;;;;;16.13;15.13;;;22.50;28.40;;;;;;4925193;29;20566;-77
2023/09/12 01:52:25;;;;;;;17.10;15.77;;;22.40;28.40;;;;;;4921428;29;20424;-79
2023/09/12 01:54:51;;;;;;;16.13;14.77;;;22.50;28.50;;;;;;4915365;29;20433;-79
2023/09/12 01:57:20;;;;;;;15.80;14.67;;;22.40;28.40;;;;;;4920345;29;20508;-78
2023/09/12 01:59:48;;;;;;;16.43;15.23;;;22.40;28.70;;;;;;4920436;29;20462;-79
2023/09/12 02:02:17;;;;;;;16.30;15.10;;;22.40;28.70;;;;;;4922333;29;20475;-79
2023/09/12 02:04:59;;;;;;;17.13;15.93;;;22.40;28.70;;;;;;4941317;29;20479;-79
2023/09/12 02:07:26;;;;;;;16.83;15.43;;;22.40;28.70;;;;;;4916606;29;20420;-79
2023/09/12 02:09:52;;;;;;;16.57;15.43;;;22.40;28.70;;;;;;4921502;29;20459;-79
2023/09/12 02:12:17;;;;;;;17.07;15.60;;;22.30;28.90;;;;;;4917263;29;20609;-79
2023/09/12 02:14:43;;;;;;;17.33;15.80;;;22.40;28.90;;;;;;4926492;29;20296;-79
2023/09/12 02:17:08;;;;;;;16.70;15.50;;;22.40;28.80;;;;;;4932712;29;20189;-78
2023/09/12 02:19:34;;;;;;;17.07;15.60;;;22.40;29.00;;;;;;4921274;29;20220;-79
2023/09/12 02:22:00;;;;;;;16.30;14.87;;;22.40;29.00;;;;;;4923649;29;20296;-78
2023/09/12 02:24:26;;;;;;;15.90;14.67;;;22.40;28.90;;;;;;4919883;29;20492;-79
2023/09/12 02:26:51;;;;;;;18.73;16.83;;;22.40;29.00;;;;;;4920444;29;20236;-79
2023/09/12 02:29:17;;;;;;;17.50;16.10;;;22.40;29.10;;;;;;4921473;29;20217;-79
2023/09/12 02:31:43;;;;;;;19.03;17.43;;;22.40;29.20;;;;;;4929181;29;20371;-78
2023/09/12 02:34:08;;;;;;;17.07;15.53;;;22.30;29.10;;;;;;4924194;29;20187;-79
2023/09/12 02:36:34;;;;;;;17.43;15.93;;;22.30;29.30;;;;;;4912674;29;20188;-79
2023/09/12 02:38:59;;;;;;;15.70;14.50;;;22.30;29.80;;;;;;4937609;29;20215;-78
2023/09/12 02:41:26;;;;;;;17.87;16.40;;;22.30;29.30;;;;;;4920289;29;20194;-78
2023/09/12 02:43:51;;;;;;;16.73;15.20;;;22.30;29.00;;;;;;4927686;29;20215;-79
2023/09/12 02:46:17;;;;;;;16.53;15.33;;;22.30;28.90;;;;;;4935217;29;20436;-79
2023/09/12 02:48:42;;;;;;;16.03;14.83;;;22.30;28.90;;;;;;4919575;29;20199;-79
2023/09/12 02:51:08;;;;;;;14.87;13.87;;;22.20;28.80;;;;;;4920294;29;20244;-78
2023/09/12 02:53:33;;;;;;;15.70;14.60;;;22.20;28.70;;;;;;4921294;29;20184;-78
2023/09/12 02:55:59;;;;;;;15.93;14.73;;;22.20;28.70;;;;;;4919389;29;20181;-79
2023/09/12 02:58:24;;;;;;;16.70;15.07;;;22.20;28.60;;;;;;4933066;29;20271;-79
2023/09/12 03:00:54;;;;;;;16.47;15.37;;;22.20;28.60;;;;;;4932138;29;20210;-79
2023/09/12 03:03:19;;;;;;;17.23;16.13;;;22.20;28.70;;;;;;4930585;29;20240;-78
2023/09/12 03:05:45;;;;;;;17.27;15.80;;;22.20;28.80;;;;;;4936507;29;20503;-79
2023/09/12 03:08:10;;;;;;;16.40;15.10;;;22.20;28.80;;;;;;4935762;29;20262;-80
2023/09/12 03:10:36;;;;;;;17.93;16.13;;;22.20;28.90;;;;;;4933741;29;20294;-79
2023/09/12 03:13:02;;;;;;;18.50;17.13;;;22.20;29.00;;;;;;4934970;29;20562;-79
2023/09/12 03:15:28;;;;;;;17.67;16.27;;;22.20;29.00;;;;;;4937240;29;20423;-79
2023/09/12 03:17:53;;;;;;;18.07;16.77;;;22.20;29.10;;;;;;4943171;29;20249;-79
2023/09/12 03:20:19;;;;;;;17.73;16.53;;;22.20;29.10;;;;;;4923183;29;20303;-80
2023/09/12 03:22:46;;;;;;;18.20;16.77;;;22.10;29.00;;;;;;4922353;29;20201;-80
2023/09/12 03:25:11;;;;;;;17.20;16.00;;;22.10;29.00;;;;;;4948342;29;20219;-80
2023/09/12 03:27:37;;;;;;;17.43;16.13;;;22.10;29.00;;;;;;4924570;29;20421;-79
2023/09/12 03:30:04;;;;;;;17.73;16.30;;;22.20;29.10;;;;;;4928339;29;20256;-78
2023/09/12 03:32:29;;;;;;;17.13;15.90;;;22.00;28.20;;;;;;4921710;29;20184;-79
2023/09/12 03:34:55;;;;;;;16.67;15.30;;;21.80;28.50;;;;;;4943300;29;20782;-79
2023/09/12 03:37:21;;;;;;;18.67;17.20;;;21.70;28.90;;;;;;4933651;29;20724;-79
2023/09/12 03:39:47;;;;;;;19.37;17.70;;;21.70;29.40;;;;;;4931678;29;20197;-79
2023/09/12 03:42:12;;;;;;;20.03;18.03;;;21.70;30.00;;;;;;4933993;29;20464;-79
2023/09/12 03:44:38;;;;;;;18.03;16.47;;;21.70;30.00;;;;;;4935533;29;20210;-78
2023/09/12 03:47:04;;;;;;;17.13;15.37;;;21.70;30.00;;;;;;4933886;29;20227;-79
2023/09/12 03:49:29;;;;;;;17.83;16.63;;;21.80;29.60;;;;;;4931565;29;20284;-79
2023/09/12 03:51:55;;;;;;;17.70;16.60;;;21.90;29.40;;;;;;4932631;29;20180;-79
2023/09/12 03:54:20;;;;;;;17.07;15.93;;;21.90;29.20;;;;;;4935308;29;20196;-78
2023/09/12 03:56:46;;;;;;;18.70;17.30;;;22.00;29.40;;;;;;4936544;29;20243;-80
2023/09/12 03:59:11;;;;;;;18.83;17.10;;;22.00;29.40;;;;;;4934706;29;20634;-79
2023/09/12 04:01:37;;;;;;;18.00;16.80;;;22.00;29.40;;;;;;4932832;29;20283;-79
2023/09/12 04:04:03;;;;;;;19.93;18.20;;;22.00;29.40;;;;;;4933521;29;20212;-79
2023/09/12 04:06:29;;;;;;;18.53;17.33;;;22.00;29.50;;;;;;4936463;29;20195;-78
2023/09/12 04:08:54;;;;;;;17.87;16.70;;;21.90;29.30;;;;;;4935978;29;20556;-80
2023/09/12 04:11:20;;;;;;;18.10;16.80;;;22.00;29.30;;;;;;4936374;29;20193;-80
2023/09/12 04:13:45;;;;;;;18.60;17.40;;;22.00;29.20;;;;;;4951800;29;20180;-79
2023/09/12 04:16:11;;;;;;;20.40;18.90;;;22.00;29.20;;;;;;4935344;29;20188;-79
2023/09/12 04:18:36;;;;;;;19.73;18.20;;;22.00;29.20;;;;;;4932665;29;20453;-79
2023/09/12 04:21:02;;;;;;;20.33;18.40;;;21.90;29.30;;;;;;4933058;29;20216;-78
2023/09/12 04:23:28;;;;;;;18.07;16.87;;;21.90;29.30;;;;;;4925939;29;20200;-78
2023/09/12 04:25:53;;;;;;;17.70;16.60;;;22.00;29.20;;;;;;4932532;29;20429;-79
2023/09/12 04:28:19;;;;;;;17.73;16.53;;;21.90;29.20;;;;;;4933820;29;20211;-80
2023/09/12 04:30:45;;;;;;;17.23;16.17;;;21.90;29.20;;;;;;4947912;29;20452;-80
2023/09/12 04:33:10;;;;;;;18.40;16.97;;;21.90;29.20;;;;;;4935302;29;20667;-80
2023/09/12 04:35:36;;;;;;;18.80;17.40;;;22.00;29.30;;;;;;4937065;29;20259;-79
2023/09/12 04:38:02;;;;;;;18.57;17.33;;;21.90;29.30;;;;;;4936582;29;20219;-79
2023/09/12 04:40:28;;;;;;;18.40;17.10;;;21.90;29.30;;;;;;4924492;29;20233;-80
2023/09/12 04:42:54;;;;;;;26.83;24.73;;;21.90;29.20;;;;;;4932793;29;20433;-79
2023/09/12 04:45:19;;;;;;;19.77;18.23;;;21.90;29.10;;;;;;4935586;29;20208;-79
2023/09/12 04:47:45;;;;;;;17.73;16.50;;;21.70;29.70;;;;;;4936554;29;20692;-79
2023/09/12 04:50:11;;;;;;;19.50;17.53;;;21.70;30.00;;;;;;4935108;29;20228;-80
2023/09/12 04:52:37;;;;;;;17.13;15.93;;;21.60;30.20;;;;;;4937258;29;20191;-79
2023/09/12 04:55:03;;;;;;;17.57;16.30;;;21.70;30.00;;;;;;4937109;29;20432;-79
2023/09/12 04:57:30;;;;;;;19.93;18.17;;;21.70;29.90;;;;;;4925633;29;20231;-80
2023/09/12 04:59:57;;;;;;;17.87;16.40;;;21.80;29.90;;;;;;4955134;29;20456;-77
2023/09/12 05:02:22;;;;;;;19.20;17.80;;;21.80;29.70;;;;;;4934496;29;20444;-79
2023/09/12 05:04:48;;;;;;;20.40;18.70;;;21.80;29.60;;;;;;4929330;29;20458;-80
2023/09/12 05:07:13;;;;;;;18.33;17.13;;;21.70;29.80;;;;;;4932638;29;20636;-78
2023/09/12 05:09:39;;;;;;;20.00;18.07;;;21.80;29.90;;;;;;4936672;29;20609;-79
2023/09/12 05:12:05;;;;;;;18.83;17.23;;;21.80;29.80;;;;;;4935876;29;20204;-78
2023/09/12 05:14:30;;;;;;;19.50;18.10;;;21.80;29.90;;;;;;4925999;29;20185;-79
2023/09/12 05:16:56;;;;;;;20.50;19.00;;;21.70;30.20;;;;;;4932100;29;20185;-80
2023/09/12 05:19:22;;;;;;;20.00;18.50;;;21.70;30.00;;;;;;4955689;23;21240;-77
2023/09/12 05:21:48;;;;;;;19.70;18.10;;;21.70;29.00;;;;;;4936124;29;20198;-77
2023/09/12 05:24:14;;;;;;;19.10;17.60;;;21.60;28.60;;;;;;4935967;29;20471;-77
2023/09/12 05:26:39;;;;;;;19.43;18.00;;;21.60;28.70;;;;;;4938060;29;20214;-77
2023/09/12 05:29:05;;;;;;;19.10;17.70;;;21.50;28.70;;;;;;4935292;29;20557;-77
2023/09/12 05:31:31;;;;;;;18.93;17.60;;;21.50;28.50;;;;;;4930660;29;20574;-76
2023/09/12 05:33:57;;;;;;;19.97;18.30;;;21.50;28.80;;;;;;4924408;29;20421;-76
2023/09/12 05:36:22;;;;;;;19.87;18.40;;;21.50;28.70;;;;;;4941131;29;20463;-76
2023/09/12 05:38:48;;;;;;;19.67;18.27;;;21.50;28.80;;;;;;4942244;29;20211;-76
2023/09/12 05:41:13;;;;;;;19.90;18.40;;;21.50;28.80;;;;;;4940847;29;20290;-76
2023/09/12 05:43:39;;;;;;;19.13;17.83;;;21.60;28.80;;;;;;4924325;29;20188;-76
2023/09/12 05:46:04;;;;;;;20.20;18.77;;;21.60;28.60;;;;;;4924076;29;20641;-77
2023/09/12 05:48:30;;;;;;;20.17;18.40;;;21.60;28.50;;;;;;4942223;29;20187;-77
2023/09/12 05:51:02;;;;;;;18.07;16.97;;;21.60;28.60;;;;;;5089422;28;20543;-75
2023/09/12 05:53:28;;;;;;;19.43;18.03;;;21.60;28.50;;;;;;5078100;28;21012;-76
2023/09/12 05:55:54;;;;;;;18.80;17.33;;;21.70;28.20;;;;;;5078294;28;20543;-76
2023/09/12 05:58:19;;;;;;;18.83;17.57;;;21.70;28.00;;;;;;5078458;28;20179;-76
2023/09/12 06:00:47;;;;;;;20.50;18.90;;;21.70;28.00;;;;;;5077192;28;20441;-77
2023/09/12 06:03:15;;;;;;;19.43;18.23;;;21.80;28.10;;;;;;5080756;28;20190;-77
2023/09/12 06:05:41;;;;;;;20.67;19.37;;;21.80;27.80;;;;;;5082344;28;20421;-77
2023/09/12 06:08:06;;;;;;;20.17;18.70;;;21.90;27.90;;;;;;5081375;28;20930;-76
2023/09/12 06:10:33;;;;;;;18.53;17.20;;;21.90;28.10;;;;;;5077404;28;20647;-77
2023/09/12 06:12:59;;;;;;;17.07;16.07;;;22.00;28.20;;;;;;5080739;28;20210;-77
2023/09/12 06:15:24;;;;;;;18.90;17.70;;;22.10;28.50;;;;;;5082060;28;20442;-76
2023/09/12 06:17:50;;;;;;;18.93;17.43;;;22.10;28.50;;;;;;5083016;28;20183;-76
2023/09/12 06:20:16;;;;;;;20.80;19.20;;;22.20;28.40;;;;;;5083221;28;20203;-77
2023/09/12 06:22:43;;;;;;;20.10;18.40;;;22.20;28.20;;;;;;5078134;28;20179;-77
2023/09/12 06:25:08;;;;;;;19.43;18.27;;;22.30;28.40;;;;;;5077960;28;20216;-76
2023/09/12 06:27:34;;;;;;;20.53;18.97;;;22.30;28.10;;;;;;5082610;28;20429;-76
2023/09/12 06:29:59;;;;;;;21.13;19.33;;;22.30;28.20;;;;;;5082473;28;20198;-77
2023/09/12 06:32:25;;;;;;;18.83;17.63;;;22.30;28.20;;;;;;5074477;28;20219;-77
2023/09/12 06:34:51;;;;;;;20.93;19.43;;;22.40;28.20;;;;;;5082387;28;20175;-78
2023/09/12 06:37:16;;;;;;;21.20;19.50;;;22.30;28.20;;;;;;5079296;28;20197;-77
2023/09/12 06:39:42;;;;;;;21.87;20.47;;;22.40;28.30;;;;;;5076352;28;20195;-77
2023/09/12 06:42:08;;;;;;;21.10;19.30;;;22.40;28.30;;;;;;5079764;28;20257;-77
2023/09/12 06:44:34;;;;;;;21.33;20.03;;;22.30;27.80;;;;;;5087398;28;20187;-77
2023/09/12 06:47:00;;;;;;;21.33;19.50;;;22.30;27.90;;;;;;5083995;28;20432;-77
2023/09/12 06:49:26;;;;;;;20.97;19.20;;;22.30;28.20;;;;;;5077720;28;20271;-78
2023/09/12 06:51:51;;;;;;;22.73;20.77;;;22.40;27.80;;;;;;5078569;28;20521;-77
2023/09/12 06:54:17;;;;;;;20.60;19.40;;;22.40;28.10;;;;;;5085682;28;20206;-78
2023/09/12 06:56:43;;;;;;;19.43;18.17;;;22.40;28.30;;;;;;5082804;28;20179;-78
2023/09/12 06:59:08;;;;;;;22.13;20.37;;;22.40;28.40;;;;;;5082190;28;20206;-78
2023/09/12 07:01:34;;;;;;;21.63;20.23;;;22.40;28.10;;;;;;5069920;28;20180;-78
2023/09/12 07:04:00;;;;;;;23.57;20.73;;;22.40;28.10;;;;;;5066169;28;20682;-78
2023/09/12 07:06:26;;;;;;;21.50;19.70;;;22.40;28.10;;;;;;5069081;28;20433;-78
2023/09/12 07:08:51;;;;;;;23.53;21.83;;;22.40;28.80;;;;;;5072458;28;20191;-78
2023/09/12 07:11:19;;;;;;;21.53;19.73;;;22.40;28.20;;;;;;5078047;28;20200;-78
2023/09/12 07:13:45;;;;;;;21.80;20.30;;;22.40;28.50;;;;;;5080112;28;20235;-78
2023/09/12 07:16:10;;;;;;;20.20;19.00;;;22.30;28.60;;;;;;5078296;28;20430;-78
2023/09/12 07:18:36;;;;;;;23.30;21.40;;;22.30;28.40;;;;;;5074216;28;20558;-77
2023/09/12 07:21:06;;;;;;;22.30;20.37;;;22.30;28.40;;;;;;5066772;28;20289;-77
2023/09/12 07:23:32;;;;;;;21.27;19.37;;;22.30;28.60;;;;;;5067693;28;20555;-77
2023/09/12 07:25:58;;;;;;;22.40;20.73;;;22.40;28.50;;;;;;5049936;28;20445;-77
2023/09/12 07:28:27;;;;;;;22.10;20.10;;;22.40;28.30;;;;;;5058381;28;20430;-78
2023/09/12 07:30:54;;;;;;;22.67;20.67;;;22.50;28.30;;;;;;5067118;28;20674;-78
2023/09/12 07:33:21;;;;;;;21.37;19.63;;;22.50;28.30;;;;;;5067072;28;20564;-77
2023/09/12 07:35:47;;;;;;;22.30;20.60;;;22.60;28.50;;;;;;5062404;28;20426;-78
2023/09/12 07:38:15;;;;;;;23.40;21.60;;;22.60;28.30;;;;;;5064945;28;20779;-77
2023/09/12 07:40:41;;;;;;;22.97;21.13;;;22.60;28.00;;;;;;5065362;28;20473;-78
2023/09/12 07:43:07;;;;;;;24.20;22.30;;;22.60;27.80;;;;;;5067565;28;21650;-77
2023/09/12 07:45:36;;;;;;;22.93;21.23;;;22.70;27.80;;;;;;5063329;28;20429;-77
2023/09/12 07:48:06;;;;;;;23.80;21.70;;;22.70;27.70;;;;;;5071621;28;20218;-78
2023/09/12 07:50:31;;;;;;;22.23;20.27;;;22.60;27.60;;;;;;5063320;28;20501;-76
2023/09/12 07:52:57;;;;;;;23.27;21.37;;;22.70;27.70;;;;;;5062947;28;20433;-76
2023/09/12 07:55:23;;;;;;;22.67;21.33;;;22.70;27.50;;;;;;5064347;28;20210;-76
2023/09/12 07:57:48;;;;;;;23.73;22.07;;;22.80;27.20;;;;;;5066260;28;20194;-76
2023/09/12 08:00:14;;;;;;;23.17;21.40;;;22.90;27.10;;;;;;5065516;28;20203;-77
2023/09/12 08:02:39;;;;;;;22.87;21.17;;;22.90;27.00;;;;;;5054525;28;20184;-76
2023/09/12 08:05:06;;;;;;;24.50;22.30;;;23.00;26.90;;;;;;5063295;28;20831;-77
2023/09/12 08:07:31;;;;;;;21.67;20.20;;;23.00;26.70;;;;;;5065049;28;20180;-77
2023/09/12 08:09:58;;;;;;;21.60;20.00;;;23.10;26.80;;;;;;5066812;28;20472;-77
2023/09/12 08:12:25;;;;;;;19.83;18.60;;;23.10;26.60;;;;;;5066604;28;20564;-77
2023/09/12 08:14:52;;;;;;;22.00;20.43;;;23.20;27.50;;;;;;5064577;28;20434;-77
2023/09/12 08:17:17;;;;;;;20.87;19.53;;;23.20;26.50;;;;;;5062821;28;20427;-77
2023/09/12 08:19:43;;;;;;;21.47;19.60;;;23.30;26.70;;;;;;5064986;28;20503;-77
2023/09/12 08:22:11;;;;;;;21.90;19.90;;;23.30;26.40;;;;;;5063663;28;20183;-77
2023/09/12 08:24:37;;;;;;;21.50;19.70;;;23.30;26.20;;;;;;5062351;28;20782;-76
2023/09/12 08:27:03;;;;;;;21.20;19.70;;;23.40;26.50;;;;;;5060668;28;20441;-75
2023/09/12 08:29:29;;;;;;;22.70;21.20;;;23.40;26.50;;;;;;5063338;28;20908;-77
2023/09/12 08:31:55;;;;;;;20.87;19.47;;;23.40;26.30;;;;;;5063528;28;20443;-75
2023/09/12 08:34:21;;;;;;;21.40;19.93;;;23.50;26.40;;;;;;5064196;28;20508;-77
2023/09/12 08:36:47;;;;;;;20.90;19.60;;;23.60;26.20;;;;;;5063505;28;20263;-76
2023/09/12 08:39:23;;;;;;;22.33;20.50;;;23.60;26.20;;;;;;5063708;28;20426;-76
2023/09/12 08:41:49;;;;;;;21.33;19.77;;;23.60;26.10;;;;;;5054784;28;20468;-76
2023/09/12 08:44:15;;;;;;;20.80;19.47;;;23.70;25.90;;;;;;5061750;28;20419;-77
2023/09/12 08:46:45;;;;;;;20.17;18.57;;;23.70;26.20;;;;;;5066026;28;20466;-76
2023/09/12 08:49:12;;;;;;;23.37;21.10;;;23.90;26.00;;;;;;5067640;28;20587;-77
2023/09/12 08:51:41;;;;;;;19.67;18.47;;;24.00;25.40;;;;;;5064574;28;20483;-76
2023/09/12 08:54:09;;;;;;;19.83;18.63;;;24.20;24.60;;;;;;5063730;28;20425;-77
2023/09/12 08:56:36;;;;;;;20.97;19.47;;;24.30;24.60;;;;;;5063997;28;20434;-76
2023/09/12 08:59:04;;;;;;;19.33;17.70;;;24.50;25.30;;;;;;5060607;28;20481;-75
2023/09/12 09:01:31;;;;;;;20.00;18.47;;;24.60;24.30;;;;;;5062931;28;20437;-77
2023/09/12 09:03:57;;;;;;;19.77;18.10;;;24.80;23.70;;;;;;5064741;28;20853;-76
2023/09/12 09:06:24;;;;;;;19.63;17.93;;;24.90;23.30;;;;;;5063212;28;20430;-76
2023/09/12 09:08:50;;;;;;;20.40;18.70;;;25.10;22.80;;;;;;5060485;28;20427;-77
2023/09/12 09:11:16;;;;;;;15.40;14.00;;;25.40;22.00;;;;;;5060782;28;20848;-76
2023/09/12 09:13:42;;;;;;;17.27;15.77;;;25.60;21.50;;;;;;5063414;28;20417;-77
2023/09/12 09:16:18;;;;;;;16.03;14.83;;;25.80;21.60;;;;;;5063807;28;20179;-77
2023/09/12 09:18:50;;;;;;;18.57;17.13;;;26.00;21.30;;;;;;5052028;28;20175;-77
2023/09/12 09:21:24;;;;;;;15.60;14.60;;;26.10;20.70;;;;;;5060005;28;20446;-77
2023/09/12 09:23:50;;;;;;;18.20;16.70;;;26.30;20.60;;;;;;5055504;28;20429;-77
2023/09/12 09:26:16;;;;;;;16.20;14.90;;;26.40;20.40;;;;;;5063621;28;20433;-76
2023/09/12 09:28:42;;;;;;;16.20;15.00;;;26.60;20.20;;;;;;5071566;28;20484;-76
2023/09/12 09:31:12;;;;;;;16.97;15.30;;;26.70;20.00;;;;;;5060763;28;20207;-76
2023/09/12 09:33:40;;;;;;;17.40;15.93;;;26.80;19.40;;;;;;5063915;28;20430;-78
2023/09/12 09:36:07;;;;;;;18.30;17.00;;;26.90;19.60;;;;;;5066076;28;20630;-77
2023/09/12 09:38:35;;;;;;;16.60;15.20;;;27.00;19.20;;;;;;5064462;28;20430;-76
2023/09/12 09:41:04;;;;;;;17.27;15.90;;;27.10;19.10;;;;;;5059706;28;20485;-76
2023/09/12 09:43:31;;;;;;;17.27;16.17;;;27.20;19.00;;;;;;5063347;28;20926;-77
2023/09/12 09:45:57;;;;;;;15.67;14.57;;;27.30;18.80;;;;;;5065560;28;20948;-79
2023/09/12 09:48:28;;;;;;;15.83;14.83;;;27.30;18.30;;;;;;5065061;28;20429;-77
2023/09/12 09:51:02;;;;;;;18.20;16.40;;;27.40;18.20;;;;;;5066105;28;20469;-76
2023/09/12 09:53:34;;;;;;;18.03;16.30;;;27.50;17.80;;;;;;5064302;28;20430;-78
2023/09/12 09:56:11;;;;;;;17.47;15.97;;;27.60;17.80;;;;;;5064339;28;20425;-77
2023/09/12 09:58:54;;;;;;;16.60;15.40;;;27.70;17.60;;;;;;5064413;28;20438;-78
2023/09/12 10:01:29;;;;;;;17.43;16.10;;;27.70;17.20;;;;;;5064000;28;20828;-77
2023/09/12 10:04:00;;;;;;;16.60;15.30;;;27.80;16.50;;;;;;5054132;28;20438;-76
2023/09/12 10:06:27;;;;;;;17.37;15.90;;;27.80;16.40;;;;;;5061722;28;20430;-76
2023/09/12 10:08:54;;;;;;;16.57;15.37;;;27.90;16.30;;;;;;5064768;28;20429;-76
2023/09/12 10:11:27;;;;;;;15.70;14.20;;;28.00;15.70;;;;;;5061959;28;20485;-76
2023/09/12 10:13:55;;;;;;;19.40;15.20;;;28.00;15.20;;;;;;5052611;28;20423;-77
2023/09/12 10:16:27;;;;;;;17.20;16.00;;;28.00;15.50;;;;;;5060219;28;20433;-77
2023/09/12 10:19:07;;;;;;;17.27;15.70;;;28.00;15.60;;;;;;5052659;28;20449;-77
2023/09/12 10:21:34;;;;;;;17.17;15.40;;;28.10;15.00;;;;;;5062670;28;20432;-76
2023/09/12 10:24:03;;;;;;;16.00;14.80;;;28.20;15.20;;;;;;5063906;28;20930;-77
2023/09/12 10:26:31;;;;;;;17.20;15.60;;;28.30;14.90;;;;;;5062890;28;20853;-77
2023/09/12 10:28:59;;;;;;;15.40;14.40;;;28.30;15.20;;;;;;5061769;28;20860;-76
2023/09/12 10:31:26;;;;;;;16.67;15.53;;;28.40;15.70;;;;;;5060655;28;20462;-75
2023/09/12 10:33:53;;;;;;;17.97;16.00;;;28.30;15.20;;;;;;5062837;28;20855;-77
2023/09/12 10:36:19;;;;;;;17.53;15.83;;;28.40;16.30;;;;;;5065481;28;20497;-78
2023/09/12 10:38:48;;;;;;;17.67;15.77;;;28.40;16.50;;;;;;5056879;28;20426;-77
2023/09/12 10:41:15;;;;;;;17.33;15.77;;;28.40;16.30;;;;;;5056542;28;20434;-77
2023/09/12 10:43:42;;;;;;;15.50;14.20;;;28.50;14.90;;;;;;5060272;28;20406;-78
2023/09/12 10:46:08;;;;;;;16.60;14.87;;;28.50;15.20;;;;;;5058524;28;20406;-77
2023/09/12 10:48:39;;;;;;;17.73;16.03;;;28.40;15.10;;;;;;5058485;28;20811;-78
2023/09/12 10:51:07;;;;;;;15.53;14.43;;;28.40;15.30;;;;;;5055010;28;20531;-77
2023/09/12 10:53:33;;;;;;;17.53;16.03;;;28.50;14.70;;;;;;5056474;28;20937;-77
2023/09/12 10:56:01;;;;;;;16.67;15.37;;;28.60;14.70;;;;;;5056179;28;20429;-77
2023/09/12 10:58:28;;;;;;;16.50;14.97;;;28.50;14.70;;;;;;5057139;28;21000;-78
2023/09/12 11:01:25;;;;;;;16.10;14.90;;;28.60;13.00;;;;;;5055692;28;20434;-77
2023/09/12 11:03:50;;;;;;;16.57;14.90;;;28.60;13.00;;;;;;5054683;28;20414;-77
2023/09/12 11:06:28;;;;;;;15.60;14.33;;;28.70;12.80;;;;;;5056151;28;20430;-77
2023/09/12 11:09:14;;;;;;;17.80;16.40;;;28.70;12.80;;;;;;5055475;28;20263;-77
2023/09/12 11:11:43;;;;;;;15.10;13.90;;;28.70;12.40;;;;;;5039961;28;20534;-77
2023/09/12 11:14:09;;;;;;;16.23;14.77;;;28.80;11.90;;;;;;5054295;28;20414;-77
2023/09/12 11:16:35;;;;;;;18.17;16.70;;;28.80;12.20;;;;;;5054545;28;20426;-77
2023/09/12 11:19:18;;;;;;;16.10;14.50;;;28.80;11.70;;;;;;5055161;28;20414;-77
2023/09/12 11:21:46;;;;;;;15.80;14.57;;;28.90;11.90;;;;;;5055715;28;20414;-76
2023/09/12 11:24:12;;;;;;;15.30;14.10;;;28.80;11.70;;;;;;5056822;28;20411;-77
2023/09/12 11:26:57;;;;;;;16.67;15.30;;;28.90;11.90;;;;;;5055659;28;20441;-77
2023/09/12 11:29:28;;;;;;;15.10;14.20;;;29.00;11.10;;;;;;5055211;28;20500;-77
2023/09/12 11:31:57;;;;;;;17.27;15.73;;;29.10;10.90;;;;;;5056155;28;20407;-77
2023/09/12 11:34:25;;;;;;;14.30;13.40;;;29.10;10.90;;;;;;5055235;28;20417;-76
2023/09/12 11:36:55;;;;;;;16.40;14.77;;;29.10;10.70;;;;;;5054975;28;20414;-77
2023/09/12 11:39:25;;;;;;;15.67;14.27;;;29.10;10.60;;;;;;5054556;28;20475;-77
2023/09/12 11:41:53;;;;;;;16.17;14.97;;;29.10;10.50;;;;;;5054706;28;20837;-77
2023/09/12 11:44:21;;;;;;;15.47;14.03;;;29.20;10.40;;;;;;5053867;28;20430;-77
2023/09/12 11:46:50;;;;;;;16.03;14.90;;;29.20;10.20;;;;;;5054100;28;20422;-77
2023/09/12 11:49:17;;;;;;;16.53;15.33;;;29.10;10.60;;;;;;5054028;28;20965;-77
2023/09/12 11:51:53;;;;;;;16.57;15.23;;;29.20;10.80;;;;;;5053602;28;20414;-77
2023/09/12 11:54:26;;;;;;;16.13;14.87;;;29.10;11.10;;;;;;5053746;28;20409;-77
2023/09/12 11:56:59;;;;;;;15.30;14.00;;;29.00;11.80;;;;;;5053786;28;20410;-77
2023/09/12 11:59:28;;;;;;;15.77;14.57;;;28.90;11.60;;;;;;5053829;28;20438;-77
2023/09/12 12:01:54;;;;;;;15.60;14.13;;;28.80;12.00;;;;;;5051836;28;20419;-77
2023/09/12 12:04:25;;;;;;;15.83;14.00;;;28.80;11.50;;;;;;5053514;28;20425;-77
2023/09/12 12:06:52;;;;;;;15.13;13.90;;;29.10;10.60;;;;;;5053299;28;20179;-77
2023/09/12 12:09:19;;;;;;;14.53;13.47;;;29.20;10.50;;;;;;5053158;28;20469;-77
2023/09/12 12:11:46;;;;;;;15.47;14.30;;;29.40;10.20;;;;;;5052883;28;20439;-77
2023/09/12 12:14:14;;;;;;;16.10;15.03;;;29.40;10.20;;;;;;5053356;28;20418;-77
2023/09/12 12:16:41;;;;;;;14.57;13.57;;;29.40;10.70;;;;;;5053145;28;20410;-77
2023/09/12 12:19:06;;;;;;;16.40;15.07;;;29.30;10.80;;;;;;5052977;28;20502;-77
2023/09/12 12:21:32;;;;;;;14.43;13.50;;;29.20;11.00;;;;;;5052880;28;20438;-77
2023/09/12 12:24:02;;;;;;;15.80;14.50;;;29.20;10.80;;;;;;5053076;28;20207;-77
2023/09/12 12:26:29;;;;;;;16.27;14.87;;;29.10;10.90;;;;;;5053172;28;20171;-77
2023/09/12 12:28:55;;;;;;;15.10;13.70;;;29.10;10.40;;;;;;5053054;28;20411;-77